Flight Track Log - Related Links

Times and Time Zones

All times are in EDT time to prevent confusion due to time zone crossing. See the RAX81 flight status page for this flight to view local times or setup timezone preferences in your user account.

Time Position Orientation Groundspeed Altitude Reporting Facility
EDT Latitude Longitude Course Direction KTS MPH feet Rate Location/Type
Wed 04:10:06 PM 41.2556 -85.4372 208° Southwest 186 214 6,000  Level Chicago Center
Wed 04:11:08 PM 41.2117 -85.4669 207° Southwest 181 208 6,000  Level Chicago Center
Wed 04:12:10 PM 41.1656 -85.4989 208° Southwest 177 204 6,000  Level Chicago Center
Wed 04:13:00 PM 41.2491 -85.4031 208° Southwest  Level FlightAware Approximate
Wed 04:13:12 PM 41.1269 -85.5233 205° Southwest 173 199 6,000  Level Chicago Center
Wed 04:14:00 PM 41.2057 -85.4342 208° Southwest  Level FlightAware Approximate
Wed 04:14:14 PM 41.0828 -85.5511 205° Southwest 173 199 6,000  Level Chicago Center
Wed 04:14:51 PM 41.0503 -85.5761 210° Southwest 175 201 6,000  Level Chicago Center
Wed 04:15:00 PM 41.1623 -85.4652 208° Southwest  Level FlightAware Approximate
Wed 04:16:04 PM 40.9972 -85.6094 205° Southwest 175 201 6,000  Level Chicago Center
Wed 04:17:04 PM 40.9547 -85.6378 207° Southwest 176 203 5,900  Descending Chicago Center
Wed 04:18:05 PM 40.9100 -85.6686 208° Southwest 177 204 6,000 50 Climbing Chicago Center
Wed 04:19:05 PM 40.8675 -85.6994 209° Southwest 180 207 6,000  Level Chicago Center
Wed 04:20:06 PM 40.8186 -85.7300 205° Southwest 181 208 6,000  Level Chicago Center
Wed 04:21:07 PM 40.7761 -85.7583 207° Southwest 181 208 6,000  Level Chicago Center
Wed 04:22:07 PM 40.7292 -85.7917 208° Southwest 183 211 6,000  Level Chicago Center
Wed 04:23:08 PM 40.6844 -85.8222 207° Southwest 184 212 6,000  Level Chicago Center
Wed 04:24:08 PM 40.6375 -85.8583 210° Southwest 188 216 6,000  Level Chicago Center
Wed 04:25:09 PM 40.5864 -85.8911 206° Southwest 190 219 6,000 -49 Level Chicago Center
Wed 04:26:10 PM 40.5417 -85.9217 207° Southwest 189 217 5,900  Descending Chicago Center
Wed 04:27:10 PM 40.4928 -85.9575 209° Southwest 191 220 6,000  Climbing Chicago Center
Wed 04:27:41 PM 40.4736 -85.9708 208° Southwest 190 219 5,900 -64 Descending Chicago Center
Wed 04:28:44 PM 40.4261 -86.0019 207° Southwest 191 220 5,900  Level Chicago Center
Wed 04:29:46 PM 40.3781 -86.0350 208° Southwest 194 223 5,900  Level Chicago Center
Wed 04:30:48 PM 40.3311 -86.0675 208° Southwest 192 221 5,900 48 Level Chicago Center
Wed 04:31:50 PM 40.2736 -86.1044 206° Southwest 192 221 6,000  Climbing Chicago Center
Wed 04:32:52 PM 40.2258 -86.1375 208° Southwest 194 223 5,900 -48 Descending Chicago Center
Wed 04:33:54 PM 40.1778 -86.1700 207° Southwest 195 224 5,900  Level Chicago Center
Wed 04:34:56 PM 40.1303 -86.2019 207° Southwest 193 222 5,900  Level Chicago Center
Wed 04:35:32 PM 40.1022 -86.2214 208° Southwest 193 222 5,900  Level Indianapolis Center
Wed 04:36:33 PM 40.0536 -86.2517 205° Southwest 193 222 5,900 49 Level Indianapolis Center
Wed 04:37:35 PM 40.0047 -86.2842 207° Southwest 195 224 6,000 49 Climbing Indianapolis Center
Wed 04:38:36 PM 39.9483 -86.3231 208° Southwest 195 224 6,000 -49 Level Indianapolis Center
Wed 04:39:38 PM 39.9092 -86.3689 222° Southwest 194 223 5,900 -49 Descending Indianapolis Center
Wed 04:40:39 PM 39.8753 -86.4189 229° Southwest 189 217 5,900  Level Indianapolis Center
Wed 04:41:40 PM 39.8419 -86.4689 229° Southwest 186 214 5,900  Level Indianapolis Center
Wed 04:42:42 PM 39.8092 -86.5203 230° Southwest 186 214 5,900  Level Indianapolis Center
Wed 04:43:43 PM 39.7744 -86.5700 228° Southwest 188 216 5,900  Level Indianapolis Center
Wed 04:44:44 PM 39.7336 -86.6331 230° Southwest 189 217 5,900  Level Indianapolis Center
Wed 04:45:46 PM 39.6994 -86.6842 229° Southwest 189 217 5,900  Level Indianapolis Center
Wed 04:46:47 PM 39.6489 -86.7133 204° Southwest 200 230 5,900 49 Level Indianapolis Center
Wed 04:47:48 PM 39.5978 -86.7400 202° Southwest 198 228 6,000 49 Climbing Indianapolis Center
Wed 04:48:50 PM 39.5456 -86.7667 201° Southwest 201 231 6,000 -49 Level Indianapolis Center
Wed 04:49:51 PM 39.4928 -86.7947 202° Southwest 205 236 5,900  Descending Indianapolis Center
Wed 04:50:52 PM 39.4411 -86.8222 202° Southwest 203 234 6,000  Climbing Indianapolis Center
Wed 04:51:53 PM 39.3892 -86.8492 202° Southwest 202 232 5,900 -49 Descending Indianapolis Center
Wed 04:52:55 PM 39.3264 -86.8811 201° Southwest 202 232 5,900  Level Indianapolis Center
Wed 04:53:56 PM 39.2744 -86.9103 203° Southwest 204 235 5,900  Level Indianapolis Center
Wed 04:54:57 PM 39.2225 -86.9389 203° Southwest 204 235 5,900 49 Level Indianapolis Center
Wed 04:55:59 PM 39.1689 -86.9633 199° South 204 235 6,000 98 Climbing Indianapolis Center
Wed 04:57:00 PM 39.1158 -86.9900 201° Southwest 201 231 6,100 49 Climbing Indianapolis Center
Wed 04:58:01 PM 39.0617 -87.0161 201° Southwest 204 235 6,100 -49 Level Indianapolis Center
Wed 04:59:02 PM 39.0075 -87.0417 200° South 207 238 6,000 -49 Descending Indianapolis Center
Wed 05:00:04 PM 38.9533 -87.0672 200° South 207 238 6,000 -49 Level Indianapolis Center
Wed 05:01:05 PM 38.8992 -87.0936 201° Southwest 207 238 5,900  Descending Indianapolis Center
Wed 05:02:06 PM 38.8475 -87.1231 204° Southwest 204 235 6,000 49 Climbing Indianapolis Center
Wed 05:03:07 PM 38.7950 -87.1494 201° Southwest 203 234 6,000  Level Indianapolis Center
Wed 05:04:09 PM 38.7317 -87.1817 202° Southwest 203 234 6,000  Level Indianapolis Center
Wed 05:05:10 PM 38.6783 -87.2108 203° Southwest 206 237 6,000 -148 Level Indianapolis Center
Wed 05:06:11 PM 38.6228 -87.2386 201° Southwest 209 241 5,700 -390 Descending Indianapolis Center
Wed 05:07:13 PM 38.5656 -87.2675 202° Southwest 218 251 5,200 -488 Descending Indianapolis Center
Wed 05:08:14 PM 38.5083 -87.2986 203° Southwest 222 255 4,700 -492 Descending Indianapolis Center
Wed 05:09:15 PM 38.4528 -87.3283 203° Southwest 220 253 4,200 -488 Descending Indianapolis Center
Wed 05:10:17 PM 38.3956 -87.3556 200° South 219 252 3,700 -439 Descending Indianapolis Center
Wed 05:11:18 PM 38.3386 -87.3828 201° Southwest 220 253 3,300 -492 Descending Indianapolis Center
Wed 05:12:19 PM 38.2839 -87.4131 203° Southwest 218 251 2,700 -443 Descending Indianapolis Center
Wed 05:13:20 PM 38.2183 -87.4464 202° Southwest 215 247 2,400 -244 Descending Indianapolis Center
Wed 05:14:22 PM 38.1661 -87.4711 200° South 208 239 2,200 -293 Descending Indianapolis Center
Wed 05:15:23 PM 38.1108 -87.4908 196° South 205 236 1,800 -344 Descending Indianapolis Center
Wed 05:16:24 PM 38.0700 -87.4992 189° South 173 199 1,500 -443 Descending Indianapolis Center
Wed 05:17:25 PM 38.0400 -87.5219 211° Southwest 163 188 900 -590 Descending Indianapolis Center
Wed 05:19:00 PM 38.0333 -87.5167 208° Southwest  Level FlightAware Approximate
Wed 05:26:00 PM 38.0384 -87.5309 208° Southwest  Level Estimated
Wed 05:27:00 PM 38.0384 -87.5309 208° Southwest  Level Estimated

Login

Don't have an account? Register now (free) for customized features, flight alerts, and more!